CheckWX is a tool to help pilots better visualize weather data.  It is not intended as a substitute for an official pre-flight weather briefing.

03:55:40 UTC

KDAG METAR
Barstow-Daggett Airport
Daggett, California, USA
Current

1 hour ago

KDAG 270250Z AUTO 22023G34KT 10SM CLR 14/03 A2981 RMK AO2 PK WND 22038/0156 SLP079 T01440028 52009
Observed
May-27 @ 02:50 UTC
Wind
  • 220° at 23 KTS
  • Gusting to 34 KTS
Visibility
10 SM
Flight Rules
VFR
Cloud Levels
  • Clear skies
Temperature
14°C / 57°F
Dewpoint
C / 37°F
Humidity
48%
Altimeter
29.81" Hg
Pressure
1009.52 hPa
Previous

2 hours ago

KDAG 270150Z AUTO 22022KT 10SM CLR 17/02 A2979 RMK AO2 PK WND 23033/0059 SLP073 T01670022
Observed
May-27 @ 01:50 UTC
Wind
  • 220° at 22 KTS
Visibility
10 SM
Flight Rules
VFR
Cloud Levels
  • Clear skies
Temperature
17°C / 63°F
Dewpoint
C / 36°F
Humidity
37%
Altimeter
29.79" Hg
Pressure
1008.82 hPa
Previous

3 hours ago

KDAG 270050Z AUTO 21026G31KT 10SM CLR 18/02 A2980 RMK AO2 PK WND 22031/0043 SLP076 T01830022
Observed
May-27 @ 00:50 UTC
Wind
  • 210° at 26 KTS
  • Gusting to 31 KTS
Visibility
10 SM
Flight Rules
VFR
Cloud Levels
  • Clear skies
Temperature
18°C / 64°F
Dewpoint
C / 36°F
Humidity
34%
Altimeter
29.8" Hg
Pressure
1009.12 hPa